sensor_id;sensor_type;location;lat;lon;timestamp;temperature;humidity
13721;DHT22;6932;51.438;5.470;2023-05-07T00:11:06;21.30;89.20
13721;DHT22;6932;51.438;5.470;2023-05-07T00:13:31;21.40;89.50
13721;DHT22;6932;51.438;5.470;2023-05-07T00:16:04;21.40;89.80
13721;DHT22;6932;51.438;5.470;2023-05-07T00:18:30;21.30;90.00
13721;DHT22;6932;51.438;5.470;2023-05-07T00:20:56;21.30;90.00
13721;DHT22;6932;51.438;5.470;2023-05-07T00:23:22;21.30;90.10
13721;DHT22;6932;51.438;5.470;2023-05-07T00:25:48;21.30;90.20
13721;DHT22;6932;51.438;5.470;2023-05-07T00:28:14;21.30;90.20
13721;DHT22;6932;51.438;5.470;2023-05-07T00:30:40;21.30;90.20
13721;DHT22;6932;51.438;5.470;2023-05-07T00:33:05;21.40;90.30
13721;DHT22;6932;51.438;5.470;2023-05-07T00:35:31;21.40;90.30
13721;DHT22;6932;51.438;5.470;2023-05-07T00:37:57;21.40;90.40
13721;DHT22;6932;51.438;5.470;2023-05-07T00:40:23;21.40;90.40
13721;DHT22;6932;51.438;5.470;2023-05-07T00:42:49;21.40;90.50
13721;DHT22;6932;51.438;5.470;2023-05-07T00:45:15;21.40;90.50
13721;DHT22;6932;51.438;5.470;2023-05-07T00:47:42;21.40;90.60
13721;DHT22;6932;51.438;5.470;2023-05-07T00:50:09;21.30;90.60
13721;DHT22;6932;51.438;5.470;2023-05-07T00:52:37;21.30;90.60
13721;DHT22;6932;51.438;5.470;2023-05-07T00:55:05;21.30;90.70
13721;DHT22;6932;51.438;5.470;2023-05-07T00:57:37;21.30;90.70
13721;DHT22;6932;51.438;5.470;2023-05-07T01:00:06;21.30;90.80
13721;DHT22;6932;51.438;5.470;2023-05-07T01:02:41;21.30;90.80
13721;DHT22;6932;51.438;5.470;2023-05-07T01:05:09;21.30;90.90
13721;DHT22;6932;51.438;5.470;2023-05-07T01:07:40;21.30;90.90
13721;DHT22;6932;51.438;5.470;2023-05-07T01:10:07;21.30;91.00
13721;DHT22;6932;51.438;5.470;2023-05-07T01:12:36;21.30;91.00
13721;DHT22;6932;51.438;5.470;2023-05-07T01:15:03;21.30;91.00
13721;DHT22;6932;51.438;5.470;2023-05-07T01:17:35;21.30;91.00
13721;DHT22;6932;51.438;5.470;2023-05-07T01:20:01;21.30;91.00
13721;DHT22;6932;51.438;5.470;2023-05-07T01:22:31;21.30;91.00
13721;DHT22;6932;51.438;5.470;2023-05-07T01:25:03;21.30;91.30
13721;DHT22;6932;51.438;5.470;2023-05-07T01:27:30;21.30;91.10
13721;DHT22;6932;51.438;5.470;2023-05-07T01:29:56;21.30;91.10
13721;DHT22;6932;51.438;5.470;2023-05-07T01:32:29;21.30;91.10
13721;DHT22;6932;51.438;5.470;2023-05-07T01:35:19;21.30;91.10
13721;DHT22;6932;51.438;5.470;2023-05-07T01:37:50;21.30;91.10
13721;DHT22;6932;51.438;5.470;2023-05-07T01:40:16;21.30;91.10
13721;DHT22;6932;51.438;5.470;2023-05-07T01:42:46;21.30;91.10
13721;DHT22;6932;51.438;5.470;2023-05-07T01:45:13;21.30;91.20
13721;DHT22;6932;51.438;5.470;2023-05-07T01:47:39;21.30;91.20
13721;DHT22;6932;51.438;5.470;2023-05-07T01:50:07;21.30;91.30
13721;DHT22;6932;51.438;5.470;2023-05-07T01:52:34;21.20;91.30
13721;DHT22;6932;51.438;5.470;2023-05-07T01:55:00;21.20;91.30
13721;DHT22;6932;51.438;5.470;2023-05-07T01:57:26;21.20;91.30
13721;DHT22;6932;51.438;5.470;2023-05-07T01:59:52;21.20;91.40
13721;DHT22;6932;51.438;5.470;2023-05-07T02:02:17;21.20;91.50
13721;DHT22;6932;51.438;5.470;2023-05-07T02:04:43;21.20;91.50
13721;DHT22;6932;51.438;5.470;2023-05-07T02:07:09;21.20;91.60
13721;DHT22;6932;51.438;5.470;2023-05-07T02:09:35;21.20;91.60
13721;DHT22;6932;51.438;5.470;2023-05-07T02:12:01;21.20;91.70
13721;DHT22;6932;51.438;5.470;2023-05-07T02:14:26;21.20;91.70
13721;DHT22;6932;51.438;5.470;2023-05-07T02:16:52;21.20;91.80
13721;DHT22;6932;51.438;5.470;2023-05-07T02:19:18;21.20;91.80
13721;DHT22;6932;51.438;5.470;2023-05-07T02:21:46;21.10;91.80
13721;DHT22;6932;51.438;5.470;2023-05-07T02:24:13;21.10;92.10
13721;DHT22;6932;51.438;5.470;2023-05-07T02:26:40;21.10;91.80
13721;DHT22;6932;51.438;5.470;2023-05-07T02:29:06;21.10;91.90
13721;DHT22;6932;51.438;5.470;2023-05-07T02:31:32;21.10;92.00
13721;DHT22;6932;51.438;5.470;2023-05-07T02:33:59;21.10;92.00
13721;DHT22;6932;51.438;5.470;2023-05-07T02:40:01;21.10;92.10
13721;DHT22;6932;51.438;5.470;2023-05-07T02:42:26;21.10;92.10
13721;DHT22;6932;51.438;5.470;2023-05-07T02:44:52;21.10;92.20
13721;DHT22;6932;51.438;5.470;2023-05-07T02:47:18;21.00;92.20
13721;DHT22;6932;51.438;5.470;2023-05-07T02:49:44;21.00;92.30
13721;DHT22;6932;51.438;5.470;2023-05-07T02:52:10;21.00;92.60
13721;DHT22;6932;51.438;5.470;2023-05-07T03:02:06;21.00;92.40
13721;DHT22;6932;51.438;5.470;2023-05-07T03:04:32;21.00;92.50
13721;DHT22;6932;51.438;5.470;2023-05-07T03:06:57;20.90;92.60
13721;DHT22;6932;51.438;5.470;2023-05-07T03:09:23;21.00;92.70
13721;DHT22;6932;51.438;5.470;2023-05-07T03:11:49;20.90;92.70
13721;DHT22;6932;51.438;5.470;2023-05-07T03:14:15;20.90;92.80
13721;DHT22;6932;51.438;5.470;2023-05-07T03:16:41;20.90;92.80
13721;DHT22;6932;51.438;5.470;2023-05-07T03:19:06;20.90;92.80
13721;DHT22;6932;51.438;5.470;2023-05-07T03:21:32;20.90;92.90
13721;DHT22;6932;51.438;5.470;2023-05-07T03:27:49;20.90;92.90
13721;DHT22;6932;51.438;5.470;2023-05-07T03:30:15;20.90;92.90
13721;DHT22;6932;51.438;5.470;2023-05-07T03:32:40;20.90;92.90
13721;DHT22;6932;51.438;5.470;2023-05-07T03:35:07;20.90;93.00
13721;DHT22;6932;51.438;5.470;2023-05-07T03:37:33;20.90;93.00
13721;DHT22;6932;51.438;5.470;2023-05-07T03:39:58;20.90;93.10
13721;DHT22;6932;51.438;5.470;2023-05-07T03:42:24;20.90;93.10
13721;DHT22;6932;51.438;5.470;2023-05-07T03:44:50;20.90;93.10
13721;DHT22;6932;51.438;5.470;2023-05-07T03:58:27;20.90;93.00
13721;DHT22;6932;51.438;5.470;2023-05-07T04:00:53;20.90;93.00
13721;DHT22;6932;51.438;5.470;2023-05-07T04:03:19;20.90;93.10
13721;DHT22;6932;51.438;5.470;2023-05-07T04:05:44;20.90;93.10
13721;DHT22;6932;51.438;5.470;2023-05-07T04:08:10;20.90;93.10
13721;DHT22;6932;51.438;5.470;2023-05-07T04:10:36;20.90;93.20
13721;DHT22;6932;51.438;5.470;2023-05-07T04:13:02;20.90;93.20
13721;DHT22;6932;51.438;5.470;2023-05-07T04:15:27;20.90;93.20
13721;DHT22;6932;51.438;5.470;2023-05-07T04:25:24;20.90;93.20
13721;DHT22;6932;51.438;5.470;2023-05-07T04:27:51;20.90;93.20
13721;DHT22;6932;51.438;5.470;2023-05-07T04:30:18;20.90;93.20
13721;DHT22;6932;51.438;5.470;2023-05-07T04:32:44;20.90;93.30
13721;DHT22;6932;51.438;5.470;2023-05-07T04:35:10;20.90;93.30
13721;DHT22;6932;51.438;5.470;2023-05-07T04:37:36;20.90;93.30
13721;DHT22;6932;51.438;5.470;2023-05-07T04:40:01;20.90;93.30
13721;DHT22;6932;51.438;5.470;2023-05-07T04:42:28;20.90;93.40
13721;DHT22;6932;51.438;5.470;2023-05-07T04:52:15;20.90;93.30
13721;DHT22;6932;51.438;5.470;2023-05-07T04:54:42;20.90;93.30
13721;DHT22;6932;51.438;5.470;2023-05-07T04:57:07;20.90;93.30
13721;DHT22;6932;51.438;5.470;2023-05-07T04:59:33;20.90;93.40
13721;DHT22;6932;51.438;5.470;2023-05-07T05:01:59;20.90;93.40
13721;DHT22;6932;51.438;5.470;2023-05-07T05:04:25;20.90;93.40
13721;DHT22;6932;51.438;5.470;2023-05-07T05:06:51;20.90;93.40
13721;DHT22;6932;51.438;5.470;2023-05-07T05:09:16;20.90;93.40
13721;DHT22;6932;51.438;5.470;2023-05-07T05:11:42;20.90;93.40
13721;DHT22;6932;51.438;5.470;2023-05-07T05:14:08;20.90;93.40
13721;DHT22;6932;51.438;5.470;2023-05-07T05:16:34;20.90;93.40
13721;DHT22;6932;51.438;5.470;2023-05-07T05:19:01;20.90;93.40
13721;DHT22;6932;51.438;5.470;2023-05-07T05:21:27;20.90;93.40
13721;DHT22;6932;51.438;5.470;2023-05-07T05:23:53;20.90;93.40
13721;DHT22;6932;51.438;5.470;2023-05-07T05:26:19;20.90;93.40
13721;DHT22;6932;51.438;5.470;2023-05-07T05:28:46;20.90;93.40
13721;DHT22;6932;51.438;5.470;2023-05-07T05:34:15;20.80;93.50
13721;DHT22;6932;51.438;5.470;2023-05-07T05:36:43;20.90;93.50
13721;DHT22;6932;51.438;5.470;2023-05-07T05:39:09;20.90;93.50
13721;DHT22;6932;51.438;5.470;2023-05-07T05:41:34;20.90;93.60
13721;DHT22;6932;51.438;5.470;2023-05-07T05:44:00;20.90;93.60
13721;DHT22;6932;51.438;5.470;2023-05-07T05:50:16;20.80;93.60
13721;DHT22;6932;51.438;5.470;2023-05-07T05:52:41;20.90;93.50
13721;DHT22;6932;51.438;5.470;2023-05-07T05:55:08;20.90;93.50
13721;DHT22;6932;51.438;5.470;2023-05-07T05:57:34;20.90;93.60
13721;DHT22;6932;51.438;5.470;2023-05-07T06:00:01;20.90;93.60
13721;DHT22;6932;51.438;5.470;2023-05-07T06:02:28;20.90;93.60
13721;DHT22;6932;51.438;5.470;2023-05-07T06:04:53;20.90;93.60
13721;DHT22;6932;51.438;5.470;2023-05-07T06:07:19;20.90;93.60
13721;DHT22;6932;51.438;5.470;2023-05-07T06:09:45;20.80;93.60
13721;DHT22;6932;51.438;5.470;2023-05-07T06:12:11;20.90;93.60
13721;DHT22;6932;51.438;5.470;2023-05-07T06:14:37;20.90;93.70
13721;DHT22;6932;51.438;5.470;2023-05-07T06:17:03;20.90;93.70
13721;DHT22;6932;51.438;5.470;2023-05-07T06:19:29;20.90;93.70
13721;DHT22;6932;51.438;5.470;2023-05-07T06:21:55;20.90;93.70
13721;DHT22;6932;51.438;5.470;2023-05-07T06:24:24;20.90;93.70
13721;DHT22;6932;51.438;5.470;2023-05-07T06:26:49;20.90;93.70
13721;DHT22;6932;51.438;5.470;2023-05-07T06:29:15;20.90;93.60
13721;DHT22;6932;51.438;5.470;2023-05-07T06:31:41;21.00;93.60
13721;DHT22;6932;51.438;5.470;2023-05-07T06:34:07;21.00;93.70
13721;DHT22;6932;51.438;5.470;2023-05-07T06:36:33;21.00;93.70
13721;DHT22;6932;51.438;5.470;2023-05-07T06:38:59;21.00;93.70
13721;DHT22;6932;51.438;5.470;2023-05-07T06:41:25;21.00;93.70
13721;DHT22;6932;51.438;5.470;2023-05-07T06:43:51;21.00;93.80
13721;DHT22;6932;51.438;5.470;2023-05-07T06:46:16;21.10;93.80
13721;DHT22;6932;51.438;5.470;2023-05-07T06:48:42;21.10;93.80
13721;DHT22;6932;51.438;5.470;2023-05-07T06:51:08;21.10;93.80
13721;DHT22;6932;51.438;5.470;2023-05-07T06:53:35;21.10;93.70
13721;DHT22;6932;51.438;5.470;2023-05-07T06:56:01;21.20;93.60
13721;DHT22;6932;51.438;5.470;2023-05-07T06:58:26;21.20;93.60
13721;DHT22;6932;51.438;5.470;2023-05-07T07:00:52;21.20;93.70
13721;DHT22;6932;51.438;5.470;2023-05-07T07:03:18;21.20;93.60
13721;DHT22;6932;51.438;5.470;2023-05-07T07:05:44;21.30;93.60
13721;DHT22;6932;51.438;5.470;2023-05-07T07:08:10;21.30;93.50
13721;DHT22;6932;51.438;5.470;2023-05-07T07:10:36;21.30;93.50
13721;DHT22;6932;51.438;5.470;2023-05-07T07:13:01;21.30;93.50
13721;DHT22;6932;51.438;5.470;2023-05-07T07:15:27;21.30;93.50
13721;DHT22;6932;51.438;5.470;2023-05-07T07:17:53;21.40;93.60
13721;DHT22;6932;51.438;5.470;2023-05-07T07:20:19;21.40;93.60
13721;DHT22;6932;51.438;5.470;2023-05-07T07:22:44;21.40;93.50
13721;DHT22;6932;51.438;5.470;2023-05-07T07:25:10;21.40;93.50
13721;DHT22;6932;51.438;5.470;2023-05-07T07:27:37;21.50;93.50
13721;DHT22;6932;51.438;5.470;2023-05-07T07:30:03;21.50;93.40
13721;DHT22;6932;51.438;5.470;2023-05-07T07:32:30;21.60;93.40
13721;DHT22;6932;51.438;5.470;2023-05-07T07:34:57;21.60;93.40
13721;DHT22;6932;51.438;5.470;2023-05-07T07:37:23;21.60;93.30
13721;DHT22;6932;51.438;5.470;2023-05-07T07:39:50;21.70;93.30
13721;DHT22;6932;51.438;5.470;2023-05-07T07:42:16;21.70;93.60
13721;DHT22;6932;51.438;5.470;2023-05-07T07:44:42;21.70;93.40
13721;DHT22;6932;51.438;5.470;2023-05-07T07:47:08;21.80;93.40
13721;DHT22;6932;51.438;5.470;2023-05-07T07:49:33;21.80;93.40
13721;DHT22;6932;51.438;5.470;2023-05-07T07:51:59;21.80;93.30
13721;DHT22;6932;51.438;5.470;2023-05-07T07:54:25;21.90;93.20
13721;DHT22;6932;51.438;5.470;2023-05-07T07:56:51;21.90;93.10
13721;DHT22;6932;51.438;5.470;2023-05-07T07:59:17;22.00;93.00
13721;DHT22;6932;51.438;5.470;2023-05-07T08:01:44;22.00;93.00
13721;DHT22;6932;51.438;5.470;2023-05-07T08:04:10;22.00;93.00
13721;DHT22;6932;51.438;5.470;2023-05-07T08:06:36;22.00;92.90
13721;DHT22;6932;51.438;5.470;2023-05-07T08:09:02;22.00;92.90
13721;DHT22;6932;51.438;5.470;2023-05-07T08:11:28;22.00;92.80
13721;DHT22;6932;51.438;5.470;2023-05-07T08:13:54;22.00;92.80
13721;DHT22;6932;51.438;5.470;2023-05-07T08:16:20;22.10;92.80
13721;DHT22;6932;51.438;5.470;2023-05-07T08:18:46;22.10;92.80
13721;DHT22;6932;51.438;5.470;2023-05-07T08:21:12;22.10;92.90
13721;DHT22;6932;51.438;5.470;2023-05-07T08:23:38;22.20;93.10
13721;DHT22;6932;51.438;5.470;2023-05-07T08:26:03;22.20;92.90
13721;DHT22;6932;51.438;5.470;2023-05-07T08:28:29;22.20;92.90
13721;DHT22;6932;51.438;5.470;2023-05-07T08:30:55;22.30;93.00
13721;DHT22;6932;51.438;5.470;2023-05-07T08:33:22;22.30;92.90
13721;DHT22;6932;51.438;5.470;2023-05-07T08:35:47;22.30;92.90
13721;DHT22;6932;51.438;5.470;2023-05-07T08:38:13;22.40;92.90
13721;DHT22;6932;51.438;5.470;2023-05-07T08:40:39;22.40;92.90
13721;DHT22;6932;51.438;5.470;2023-05-07T08:43:27;22.50;92.80
13721;DHT22;6932;51.438;5.470;2023-05-07T08:45:55;22.50;92.80
13721;DHT22;6932;51.438;5.470;2023-05-07T08:48:27;22.50;92.70
13721;DHT22;6932;51.438;5.470;2023-05-07T08:50:55;22.50;92.80
13721;DHT22;6932;51.438;5.470;2023-05-07T08:53:21;22.60;92.80
13721;DHT22;6932;51.438;5.470;2023-05-07T08:55:47;22.70;92.70
13721;DHT22;6932;51.438;5.470;2023-05-07T08:58:14;22.70;92.60
13721;DHT22;6932;51.438;5.470;2023-05-07T09:00:40;22.80;92.60
13721;DHT22;6932;51.438;5.470;2023-05-07T09:06:29;22.80;92.70
13721;DHT22;6932;51.438;5.470;2023-05-07T09:08:55;22.90;92.60
13721;DHT22;6932;51.438;5.470;2023-05-07T09:11:22;22.90;92.50
13721;DHT22;6932;51.438;5.470;2023-05-07T09:13:52;23.00;92.40
13721;DHT22;6932;51.438;5.470;2023-05-07T09:16:21;23.10;92.30
13721;DHT22;6932;51.438;5.470;2023-05-07T09:18:50;23.20;92.30
13721;DHT22;6932;51.438;5.470;2023-05-07T09:21:18;23.20;92.20
13721;DHT22;6932;51.438;5.470;2023-05-07T09:23:44;23.30;92.00
13721;DHT22;6932;51.438;5.470;2023-05-07T09:26:10;23.40;92.30
13721;DHT22;6932;51.438;5.470;2023-05-07T09:28:41;23.50;91.90
13721;DHT22;6932;51.438;5.470;2023-05-07T09:31:08;23.50;91.70
13721;DHT22;6932;51.438;5.470;2023-05-07T09:33:35;23.60;91.60
13721;DHT22;6932;51.438;5.470;2023-05-07T09:36:04;23.70;91.40
13721;DHT22;6932;51.438;5.470;2023-05-07T09:38:35;23.70;91.10
13721;DHT22;6932;51.438;5.470;2023-05-07T09:41:09;23.80;90.80
13721;DHT22;6932;51.438;5.470;2023-05-07T09:43:38;23.90;90.60
13721;DHT22;6932;51.438;5.470;2023-05-07T09:46:15;24.00;90.50
13721;DHT22;6932;51.438;5.470;2023-05-07T09:48:43;24.00;90.30
13721;DHT22;6932;51.438;5.470;2023-05-07T09:51:29;24.10;90.30
13721;DHT22;6932;51.438;5.470;2023-05-07T09:53:57;24.10;90.30
13721;DHT22;6932;51.438;5.470;2023-05-07T09:56:25;24.20;90.30
13721;DHT22;6932;51.438;5.470;2023-05-07T09:58:54;24.20;90.60
13721;DHT22;6932;51.438;5.470;2023-05-07T10:01:23;24.20;90.30
13721;DHT22;6932;51.438;5.470;2023-05-07T10:03:51;24.30;90.20
13721;DHT22;6932;51.438;5.470;2023-05-07T10:06:20;24.30;90.20
13721;DHT22;6932;51.438;5.470;2023-05-07T10:08:46;24.40;90.00
13721;DHT22;6932;51.438;5.470;2023-05-07T10:11:14;24.50;89.80
13721;DHT22;6932;51.438;5.470;2023-05-07T10:13:41;24.50;89.80
13721;DHT22;6932;51.438;5.470;2023-05-07T10:16:08;24.60;89.50
13721;DHT22;6932;51.438;5.470;2023-05-07T10:18:34;24.60;89.80
13721;DHT22;6932;51.438;5.470;2023-05-07T10:21:11;24.70;89.70
13721;DHT22;6932;51.438;5.470;2023-05-07T10:23:53;24.70;88.80
13721;DHT22;6932;51.438;5.470;2023-05-07T10:26:25;24.80;88.50
13721;DHT22;6932;51.438;5.470;2023-05-07T10:28:58;24.90;88.10
13721;DHT22;6932;51.438;5.470;2023-05-07T10:34:38;25.00;87.20
13721;DHT22;6932;51.438;5.470;2023-05-07T10:37:08;25.10;87.30
13721;DHT22;6932;51.438;5.470;2023-05-07T10:39:35;25.10;87.00
13721;DHT22;6932;51.438;5.470;2023-05-07T10:42:13;25.10;86.80
13721;DHT22;6932;51.438;5.470;2023-05-07T10:44:39;25.20;86.40
13721;DHT22;6932;51.438;5.470;2023-05-07T10:47:13;25.20;86.10
13721;DHT22;6932;51.438;5.470;2023-05-07T10:52:19;25.40;85.30
13721;DHT22;6932;51.438;5.470;2023-05-07T10:54:47;25.40;85.20
13721;DHT22;6932;51.438;5.470;2023-05-07T10:59:57;25.40;85.20
13721;DHT22;6932;51.438;5.470;2023-05-07T11:02:23;25.50;85.10
13721;DHT22;6932;51.438;5.470;2023-05-07T11:05:30;25.50;84.80
13721;DHT22;6932;51.438;5.470;2023-05-07T11:07:58;25.50;84.30
13721;DHT22;6932;51.438;5.470;2023-05-07T11:10:54;25.60;84.60
13721;DHT22;6932;51.438;5.470;2023-05-07T11:16:20;25.60;84.00
13721;DHT22;6932;51.438;5.470;2023-05-07T11:18:51;25.70;84.10
13721;DHT22;6932;51.438;5.470;2023-05-07T11:25:05;25.70;83.70
13721;DHT22;6932;51.438;5.470;2023-05-07T11:27:32;25.70;83.00
13721;DHT22;6932;51.438;5.470;2023-05-07T11:29:59;25.70;83.20
13721;DHT22;6932;51.438;5.470;2023-05-07T11:32:27;25.70;83.10
13721;DHT22;6932;51.438;5.470;2023-05-07T11:34:55;25.70;82.80
13721;DHT22;6932;51.438;5.470;2023-05-07T11:37:24;25.70;83.00
13721;DHT22;6932;51.438;5.470;2023-05-07T11:39:50;25.70;82.80
13721;DHT22;6932;51.438;5.470;2023-05-07T11:42:31;25.70;82.60
13721;DHT22;6932;51.438;5.470;2023-05-07T11:45:02;25.70;82.50
13721;DHT22;6932;51.438;5.470;2023-05-07T11:47:32;25.80;82.60
13721;DHT22;6932;51.438;5.470;2023-05-07T11:50:07;25.80;82.60
13721;DHT22;6932;51.438;5.470;2023-05-07T11:52:33;25.80;82.40
13721;DHT22;6932;51.438;5.470;2023-05-07T11:55:00;25.80;81.90
13721;DHT22;6932;51.438;5.470;2023-05-07T11:57:27;25.80;81.60
13721;DHT22;6932;51.438;5.470;2023-05-07T11:59:57;25.80;81.50
13721;DHT22;6932;51.438;5.470;2023-05-07T12:06:09;25.80;81.70
13721;DHT22;6932;51.438;5.470;2023-05-07T12:08:41;25.90;81.50
13721;DHT22;6932;51.438;5.470;2023-05-07T12:11:23;25.90;81.20
13721;DHT22;6932;51.438;5.470;2023-05-07T12:13:51;25.80;81.10
13721;DHT22;6932;51.438;5.470;2023-05-07T12:16:17;25.90;80.60
13721;DHT22;6932;51.438;5.470;2023-05-07T12:18:44;25.90;80.60
13721;DHT22;6932;51.438;5.470;2023-05-07T12:21:11;25.80;80.40
13721;DHT22;6932;51.438;5.470;2023-05-07T12:23:38;25.80;80.50
13721;DHT22;6932;51.438;5.470;2023-05-07T12:26:05;25.80;80.90
13721;DHT22;6932;51.438;5.470;2023-05-07T12:28:31;25.70;81.30
13721;DHT22;6932;51.438;5.470;2023-05-07T12:31:02;25.70;81.60
13721;DHT22;6932;51.438;5.470;2023-05-07T12:33:29;25.70;82.20
13721;DHT22;6932;51.438;5.470;2023-05-07T12:35:56;25.70;82.90
13721;DHT22;6932;51.438;5.470;2023-05-07T12:38:22;25.60;84.10
13721;DHT22;6932;51.438;5.470;2023-05-07T12:40:49;25.50;82.20
13721;DHT22;6932;51.438;5.470;2023-05-07T12:43:25;25.40;81.80
13721;DHT22;6932;51.438;5.470;2023-05-07T12:45:57;25.10;81.50
13721;DHT22;6932;51.438;5.470;2023-05-07T12:48:25;24.80;82.10
13721;DHT22;6932;51.438;5.470;2023-05-07T12:50:55;24.50;82.80
13721;DHT22;6932;51.438;5.470;2023-05-07T12:53:26;24.10;83.10
13721;DHT22;6932;51.438;5.470;2023-05-07T12:55:56;23.80;84.20
13721;DHT22;6932;51.438;5.470;2023-05-07T12:58:24;23.60;84.70
13721;DHT22;6932;51.438;5.470;2023-05-07T13:00:51;23.40;84.80
13721;DHT22;6932;51.438;5.470;2023-05-07T13:03:25;23.20;84.30
13721;DHT22;6932;51.438;5.470;2023-05-07T13:05:55;23.10;84.20
13721;DHT22;6932;51.438;5.470;2023-05-07T13:11:02;22.80;84.70
13721;DHT22;6932;51.438;5.470;2023-05-07T13:13:34;22.70;84.70
13721;DHT22;6932;51.438;5.470;2023-05-07T13:16:02;22.60;85.10
13721;DHT22;6932;51.438;5.470;2023-05-07T13:18:30;22.60;86.00
13721;DHT22;6932;51.438;5.470;2023-05-07T13:20:56;22.50;87.30
13721;DHT22;6932;51.438;5.470;2023-05-07T13:23:22;22.50;88.50
13721;DHT22;6932;51.438;5.470;2023-05-07T13:25:48;22.50;89.20
13721;DHT22;6932;51.438;5.470;2023-05-07T13:28:15;22.50;90.00
13721;DHT22;6932;51.438;5.470;2023-05-07T13:30:41;22.50;90.30
13721;DHT22;6932;51.438;5.470;2023-05-07T13:33:07;22.60;90.70
13721;DHT22;6932;51.438;5.470;2023-05-07T13:35:33;22.70;91.00
13721;DHT22;6932;51.438;5.470;2023-05-07T13:37:59;22.70;91.20
13721;DHT22;6932;51.438;5.470;2023-05-07T13:40:25;22.80;90.90
13721;DHT22;6932;51.438;5.470;2023-05-07T13:42:51;22.80;90.60
13721;DHT22;6932;51.438;5.470;2023-05-07T13:45:18;22.90;90.20
13721;DHT22;6932;51.438;5.470;2023-05-07T13:47:44;22.90;90.10
13721;DHT22;6932;51.438;5.470;2023-05-07T13:50:11;22.90;90.20
13721;DHT22;6932;51.438;5.470;2023-05-07T13:52:42;23.00;90.30
13721;DHT22;6932;51.438;5.470;2023-05-07T13:58:49;23.10;89.80
13721;DHT22;6932;51.438;5.470;2023-05-07T14:01:15;23.20;89.10
13721;DHT22;6932;51.438;5.470;2023-05-07T14:03:40;23.20;89.10
13721;DHT22;6932;51.438;5.470;2023-05-07T14:06:06;23.20;89.30
13721;DHT22;6932;51.438;5.470;2023-05-07T14:08:32;23.20;88.60
13721;DHT22;6932;51.438;5.470;2023-05-07T14:10:58;23.30;88.40
13721;DHT22;6932;51.438;5.470;2023-05-07T14:13:23;23.30;88.20
13721;DHT22;6932;51.438;5.470;2023-05-07T14:15:49;23.40;88.40
13721;DHT22;6932;51.438;5.470;2023-05-07T14:18:15;23.40;88.30
13721;DHT22;6932;51.438;5.470;2023-05-07T14:24:35;23.40;88.70
13721;DHT22;6932;51.438;5.470;2023-05-07T14:27:01;23.60;89.30
13721;DHT22;6932;51.438;5.470;2023-05-07T14:29:27;23.50;89.80
13721;DHT22;6932;51.438;5.470;2023-05-07T14:31:53;23.60;90.00
13721;DHT22;6932;51.438;5.470;2023-05-07T14:34:19;23.50;90.10
13721;DHT22;6932;51.438;5.470;2023-05-07T14:52:48;23.40;90.20
13721;DHT22;6932;51.438;5.470;2023-05-07T14:55:13;23.30;90.50
13721;DHT22;6932;51.438;5.470;2023-05-07T14:57:39;23.30;90.60
13721;DHT22;6932;51.438;5.470;2023-05-07T15:00:06;23.30;90.50
13721;DHT22;6932;51.438;5.470;2023-05-07T15:02:32;23.30;90.40
13721;DHT22;6932;51.438;5.470;2023-05-07T15:04:59;23.20;90.20
13721;DHT22;6932;51.438;5.470;2023-05-07T15:07:24;23.20;90.10
13721;DHT22;6932;51.438;5.470;2023-05-07T15:09:51;23.20;90.40
13721;DHT22;6932;51.438;5.470;2023-05-07T15:12:50;23.10;90.30
13721;DHT22;6932;51.438;5.470;2023-05-07T15:15:16;23.20;90.40
13721;DHT22;6932;51.438;5.470;2023-05-07T15:17:42;23.20;90.50
13721;DHT22;6932;51.438;5.470;2023-05-07T15:20:08;23.20;90.70
13721;DHT22;6932;51.438;5.470;2023-05-07T15:22:34;23.20;90.60
13721;DHT22;6932;51.438;5.470;2023-05-07T15:25:02;23.20;90.40
13721;DHT22;6932;51.438;5.470;2023-05-07T15:27:30;23.20;90.40
13721;DHT22;6932;51.438;5.470;2023-05-07T15:29:56;23.20;90.50
13721;DHT22;6932;51.438;5.470;2023-05-07T15:32:22;23.30;90.70
13721;DHT22;6932;51.438;5.470;2023-05-07T15:34:48;23.30;90.70
13721;DHT22;6932;51.438;5.470;2023-05-07T15:37:14;23.30;90.70
13721;DHT22;6932;51.438;5.470;2023-05-07T15:39:40;23.30;90.70
13721;DHT22;6932;51.438;5.470;2023-05-07T15:42:05;23.40;90.80
13721;DHT22;6932;51.438;5.470;2023-05-07T15:44:31;23.40;90.70
13721;DHT22;6932;51.438;5.470;2023-05-07T15:46:58;23.40;90.80
13721;DHT22;6932;51.438;5.470;2023-05-07T15:49:25;23.50;90.90
13721;DHT22;6932;51.438;5.470;2023-05-07T15:51:51;23.50;91.00
13721;DHT22;6932;51.438;5.470;2023-05-07T15:54:19;23.50;91.10
13721;DHT22;6932;51.438;5.470;2023-05-07T15:56:45;23.60;91.10
13721;DHT22;6932;51.438;5.470;2023-05-07T15:59:12;23.60;91.10
13721;DHT22;6932;51.438;5.470;2023-05-07T16:01:38;23.60;91.30
13721;DHT22;6932;51.438;5.470;2023-05-07T16:04:07;23.60;91.00
13721;DHT22;6932;51.438;5.470;2023-05-07T16:06:33;23.70;91.30
13721;DHT22;6932;51.438;5.470;2023-05-07T16:09:13;23.70;90.70
13721;DHT22;6932;51.438;5.470;2023-05-07T16:11:38;23.70;90.60
13721;DHT22;6932;51.438;5.470;2023-05-07T16:14:04;23.80;90.50
13721;DHT22;6932;51.438;5.470;2023-05-07T16:16:34;23.80;90.50
13721;DHT22;6932;51.438;5.470;2023-05-07T16:19:00;23.80;90.30
13721;DHT22;6932;51.438;5.470;2023-05-07T16:21:26;23.80;90.40
13721;DHT22;6932;51.438;5.470;2023-05-07T16:23:52;23.80;90.40
13721;DHT22;6932;51.438;5.470;2023-05-07T16:26:18;23.90;90.40
13721;DHT22;6932;51.438;5.470;2023-05-07T16:32:06;23.90;90.50
13721;DHT22;6932;51.438;5.470;2023-05-07T16:34:31;24.00;90.20
13721;DHT22;6932;51.438;5.470;2023-05-07T16:36:57;24.00;90.20
13721;DHT22;6932;51.438;5.470;2023-05-07T16:39:23;24.00;90.30
13721;DHT22;6932;51.438;5.470;2023-05-07T16:41:49;24.00;90.30
13721;DHT22;6932;51.438;5.470;2023-05-07T16:44:16;24.10;90.40
13721;DHT22;6932;51.438;5.470;2023-05-07T16:46:42;24.10;90.00
13721;DHT22;6932;51.438;5.470;2023-05-07T16:49:08;24.10;89.70
13721;DHT22;6932;51.438;5.470;2023-05-07T16:51:34;24.10;89.50
13721;DHT22;6932;51.438;5.470;2023-05-07T16:54:00;24.10;89.50
13721;DHT22;6932;51.438;5.470;2023-05-07T16:56:26;24.10;89.50
13721;DHT22;6932;51.438;5.470;2023-05-07T16:58:52;24.20;90.00
13721;DHT22;6932;51.438;5.470;2023-05-07T17:01:18;24.20;90.00
13721;DHT22;6932;51.438;5.470;2023-05-07T17:03:44;24.20;89.90
13721;DHT22;6932;51.438;5.470;2023-05-07T17:06:10;24.20;89.70
13721;DHT22;6932;51.438;5.470;2023-05-07T17:08:42;24.20;89.60
13721;DHT22;6932;51.438;5.470;2023-05-07T17:11:08;24.20;89.60
13721;DHT22;6932;51.438;5.470;2023-05-07T17:13:33;24.20;89.80
13721;DHT22;6932;51.438;5.470;2023-05-07T17:15:59;24.20;90.00
13721;DHT22;6932;51.438;5.470;2023-05-07T17:18:25;24.20;90.10
13721;DHT22;6932;51.438;5.470;2023-05-07T17:20:51;24.20;90.10
13721;DHT22;6932;51.438;5.470;2023-05-07T17:23:17;24.20;90.10
13721;DHT22;6932;51.438;5.470;2023-05-07T17:25:43;24.20;90.10
13721;DHT22;6932;51.438;5.470;2023-05-07T17:28:10;24.20;90.30
13721;DHT22;6932;51.438;5.470;2023-05-07T17:30:36;24.10;90.30
13721;DHT22;6932;51.438;5.470;2023-05-07T17:33:02;24.10;90.40
13721;DHT22;6932;51.438;5.470;2023-05-07T17:35:28;24.10;90.40